sensor_id;sensor_type;location;lat;lon;timestamp;P1;durP1;ratioP1;P2;durP2;ratioP2
70132;SDS011;57495;49.922;7.966;2022-08-02T00:01:53;4.75;;;2.72;;
70132;SDS011;57495;49.922;7.966;2022-08-02T00:03:55;4.35;;;2.75;;
70132;SDS011;57495;49.922;7.966;2022-08-02T00:05:56;5.68;;;2.90;;
70132;SDS011;57495;49.922;7.966;2022-08-02T00:07:57;5.80;;;3.30;;
70132;SDS011;57495;49.922;7.966;2022-08-02T00:10:00;5.53;;;3.22;;
70132;SDS011;57495;49.922;7.966;2022-08-02T00:12:02;5.40;;;3.22;;
70132;SDS011;57495;49.922;7.966;2022-08-02T00:14:04;5.63;;;3.03;;
70132;SDS011;57495;49.922;7.966;2022-08-02T00:16:05;4.47;;;3.10;;
70132;SDS011;57495;49.922;7.966;2022-08-02T00:18:06;5.10;;;2.60;;
70132;SDS011;57495;49.922;7.966;2022-08-02T00:20:08;5.07;;;2.75;;
70132;SDS011;57495;49.922;7.966;2022-08-02T00:22:11;4.95;;;2.60;;
70132;SDS011;57495;49.922;7.966;2022-08-02T00:24:13;5.72;;;3.03;;
70132;SDS011;57495;49.922;7.966;2022-08-02T00:26:15;5.63;;;2.92;;
70132;SDS011;57495;49.922;7.966;2022-08-02T00:28:17;5.03;;;2.47;;
70132;SDS011;57495;49.922;7.966;2022-08-02T00:30:18;6.97;;;2.83;;
70132;SDS011;57495;49.922;7.966;2022-08-02T00:32:20;5.18;;;2.95;;
70132;SDS011;57495;49.922;7.966;2022-08-02T00:34:21;5.13;;;3.05;;
70132;SDS011;57495;49.922;7.966;2022-08-02T00:36:23;5.75;;;3.03;;
70132;SDS011;57495;49.922;7.966;2022-08-02T00:38:24;4.13;;;2.50;;
70132;SDS011;57495;49.922;7.966;2022-08-02T00:40:25;4.60;;;2.85;;
70132;SDS011;57495;49.922;7.966;2022-08-02T00:42:28;4.57;;;3.17;;
70132;SDS011;57495;49.922;7.966;2022-08-02T00:44:30;4.35;;;2.65;;
70132;SDS011;57495;49.922;7.966;2022-08-02T00:46:31;4.38;;;3.05;;
70132;SDS011;57495;49.922;7.966;2022-08-02T00:48:33;4.43;;;3.00;;
70132;SDS011;57495;49.922;7.966;2022-08-02T00:50:35;5.25;;;2.80;;
70132;SDS011;57495;49.922;7.966;2022-08-02T00:52:37;4.32;;;3.00;;
70132;SDS011;57495;49.922;7.966;2022-08-02T00:54:38;4.65;;;2.90;;
70132;SDS011;57495;49.922;7.966;2022-08-02T00:56:40;7.18;;;3.00;;
70132;SDS011;57495;49.922;7.966;2022-08-02T00:58:43;4.77;;;2.63;;
70132;SDS011;57495;49.922;7.966;2022-08-02T01:00:44;5.25;;;3.10;;
70132;SDS011;57495;49.922;7.966;2022-08-02T01:02:46;5.25;;;2.78;;
70132;SDS011;57495;49.922;7.966;2022-08-02T01:04:47;4.57;;;2.97;;
70132;SDS011;57495;49.922;7.966;2022-08-02T01:06:49;5.13;;;2.45;;
70132;SDS011;57495;49.922;7.966;2022-08-02T01:08:50;5.50;;;2.57;;
70132;SDS011;57495;49.922;7.966;2022-08-02T01:10:52;5.55;;;2.63;;
70132;SDS011;57495;49.922;7.966;2022-08-02T01:12:53;5.97;;;2.90;;
70132;SDS011;57495;49.922;7.966;2022-08-02T01:14:57;5.53;;;2.80;;
70132;SDS011;57495;49.922;7.966;2022-08-02T01:17:02;4.82;;;2.60;;
70132;SDS011;57495;49.922;7.966;2022-08-02T01:19:09;4.53;;;2.70;;
70132;SDS011;57495;49.922;7.966;2022-08-02T01:21:32;4.72;;;3.17;;
70132;SDS011;57495;49.922;7.966;2022-08-02T01:23:47;13.75;;;2.80;;
70132;SDS011;57495;49.922;7.966;2022-08-02T01:26:02;7.20;;;2.65;;
70132;SDS011;57495;49.922;7.966;2022-08-02T01:28:25;5.18;;;3.15;;
70132;SDS011;57495;49.922;7.966;2022-08-02T01:30:29;5.60;;;2.17;;
70132;SDS011;57495;49.922;7.966;2022-08-02T01:32:36;5.07;;;2.50;;
70132;SDS011;57495;49.922;7.966;2022-08-02T01:34:42;5.88;;;2.75;;
70132;SDS011;57495;49.922;7.966;2022-08-02T01:36:51;11.32;;;2.78;;
70132;SDS011;57495;49.922;7.966;2022-08-02T01:38:55;5.88;;;3.47;;
70132;SDS011;57495;49.922;7.966;2022-08-02T01:40:58;5.20;;;2.60;;
70132;SDS011;57495;49.922;7.966;2022-08-02T01:43:02;5.35;;;3.03;;
70132;SDS011;57495;49.922;7.966;2022-08-02T01:45:06;4.75;;;2.60;;
70132;SDS011;57495;49.922;7.966;2022-08-02T01:47:16;4.30;;;2.60;;
70132;SDS011;57495;49.922;7.966;2022-08-02T01:49:21;5.45;;;3.40;;
70132;SDS011;57495;49.922;7.966;2022-08-02T01:51:26;8.87;;;3.07;;
70132;SDS011;57495;49.922;7.966;2022-08-02T01:53:47;6.00;;;2.80;;
70132;SDS011;57495;49.922;7.966;2022-08-02T01:55:50;4.90;;;2.65;;
70132;SDS011;57495;49.922;7.966;2022-08-02T01:57:56;5.20;;;2.90;;
70132;SDS011;57495;49.922;7.966;2022-08-02T02:00:00;5.10;;;2.60;;
70132;SDS011;57495;49.922;7.966;2022-08-02T02:02:06;6.80;;;2.80;;
70132;SDS011;57495;49.922;7.966;2022-08-02T02:04:09;6.70;;;2.88;;
70132;SDS011;57495;49.922;7.966;2022-08-02T02:06:12;5.00;;;2.92;;
70132;SDS011;57495;49.922;7.966;2022-08-02T02:08:15;5.65;;;3.08;;
70132;SDS011;57495;49.922;7.966;2022-08-02T02:10:23;4.90;;;2.80;;
70132;SDS011;57495;49.922;7.966;2022-08-02T02:12:26;4.50;;;2.73;;
70132;SDS011;57495;49.922;7.966;2022-08-02T02:14:31;4.82;;;2.45;;
70132;SDS011;57495;49.922;7.966;2022-08-02T02:16:34;7.40;;;3.38;;
70132;SDS011;57495;49.922;7.966;2022-08-02T02:18:39;6.72;;;2.70;;
70132;SDS011;57495;49.922;7.966;2022-08-02T02:20:43;4.68;;;3.10;;
70132;SDS011;57495;49.922;7.966;2022-08-02T02:22:46;4.97;;;2.77;;
70132;SDS011;57495;49.922;7.966;2022-08-02T02:24:47;4.70;;;3.13;;
70132;SDS011;57495;49.922;7.966;2022-08-02T02:26:49;5.50;;;2.75;;
70132;SDS011;57495;49.922;7.966;2022-08-02T02:28:51;5.05;;;2.70;;
70132;SDS011;57495;49.922;7.966;2022-08-02T02:30:57;5.63;;;3.13;;
70132;SDS011;57495;49.922;7.966;2022-08-02T02:33:02;5.13;;;3.20;;
70132;SDS011;57495;49.922;7.966;2022-08-02T02:35:07;6.45;;;3.42;;
70132;SDS011;57495;49.922;7.966;2022-08-02T02:37:13;5.93;;;3.40;;
70132;SDS011;57495;49.922;7.966;2022-08-02T02:39:19;6.07;;;3.30;;
70132;SDS011;57495;49.922;7.966;2022-08-02T02:41:22;5.55;;;3.22;;
70132;SDS011;57495;49.922;7.966;2022-08-02T02:43:26;6.87;;;3.10;;
70132;SDS011;57495;49.922;7.966;2022-08-02T02:45:30;4.68;;;2.97;;
70132;SDS011;57495;49.922;7.966;2022-08-02T02:47:33;5.78;;;4.05;;
70132;SDS011;57495;49.922;7.966;2022-08-02T02:49:36;5.57;;;3.53;;
70132;SDS011;57495;49.922;7.966;2022-08-02T02:51:41;6.05;;;3.60;;
70132;SDS011;57495;49.922;7.966;2022-08-02T02:53:44;5.37;;;3.47;;
70132;SDS011;57495;49.922;7.966;2022-08-02T02:55:49;4.63;;;3.20;;
70132;SDS011;57495;49.922;7.966;2022-08-02T02:57:51;4.45;;;3.08;;
70132;SDS011;57495;49.922;7.966;2022-08-02T02:59:54;4.95;;;3.50;;
70132;SDS011;57495;49.922;7.966;2022-08-02T03:01:55;5.88;;;3.78;;
70132;SDS011;57495;49.922;7.966;2022-08-02T03:03:59;4.70;;;3.20;;
70132;SDS011;57495;49.922;7.966;2022-08-02T03:06:04;5.85;;;3.75;;
70132;SDS011;57495;49.922;7.966;2022-08-02T03:08:07;5.93;;;3.60;;
70132;SDS011;57495;49.922;7.966;2022-08-02T03:10:09;4.95;;;3.45;;
70132;SDS011;57495;49.922;7.966;2022-08-02T03:12:11;5.68;;;3.80;;
70132;SDS011;57495;49.922;7.966;2022-08-02T03:14:12;5.23;;;3.63;;
70132;SDS011;57495;49.922;7.966;2022-08-02T03:16:14;5.63;;;3.55;;
70132;SDS011;57495;49.922;7.966;2022-08-02T03:18:28;5.90;;;3.97;;
70132;SDS011;57495;49.922;7.966;2022-08-02T03:20:30;6.20;;;3.50;;
70132;SDS011;57495;49.922;7.966;2022-08-02T03:22:31;5.60;;;3.75;;
70132;SDS011;57495;49.922;7.966;2022-08-02T03:24:34;5.63;;;3.50;;
70132;SDS011;57495;49.922;7.966;2022-08-02T03:26:36;4.78;;;3.40;;
70132;SDS011;57495;49.922;7.966;2022-08-02T03:28:38;5.60;;;3.92;;
70132;SDS011;57495;49.922;7.966;2022-08-02T03:30:40;5.53;;;3.58;;
70132;SDS011;57495;49.922;7.966;2022-08-02T03:32:42;5.78;;;3.13;;
70132;SDS011;57495;49.922;7.966;2022-08-02T03:34:45;6.10;;;3.40;;
70132;SDS011;57495;49.922;7.966;2022-08-02T03:36:47;4.95;;;3.60;;
70132;SDS011;57495;49.922;7.966;2022-08-02T03:38:51;5.53;;;3.72;;
70132;SDS011;57495;49.922;7.966;2022-08-02T03:40:56;6.38;;;4.00;;
70132;SDS011;57495;49.922;7.966;2022-08-02T03:43:00;5.78;;;3.78;;
70132;SDS011;57495;49.922;7.966;2022-08-02T03:45:03;6.73;;;4.33;;
70132;SDS011;57495;49.922;7.966;2022-08-02T03:47:07;8.85;;;4.30;;
70132;SDS011;57495;49.922;7.966;2022-08-02T03:49:09;8.13;;;4.45;;
70132;SDS011;57495;49.922;7.966;2022-08-02T03:51:11;5.97;;;3.97;;
70132;SDS011;57495;49.922;7.966;2022-08-02T03:53:13;6.25;;;3.97;;
70132;SDS011;57495;49.922;7.966;2022-08-02T03:55:16;5.70;;;4.00;;
70132;SDS011;57495;49.922;7.966;2022-08-02T03:57:18;7.50;;;4.32;;
70132;SDS011;57495;49.922;7.966;2022-08-02T03:59:20;7.75;;;4.53;;
70132;SDS011;57495;49.922;7.966;2022-08-02T04:01:22;5.97;;;4.25;;
70132;SDS011;57495;49.922;7.966;2022-08-02T04:03:23;5.70;;;4.20;;
70132;SDS011;57495;49.922;7.966;2022-08-02T04:05:25;5.63;;;3.70;;
70132;SDS011;57495;49.922;7.966;2022-08-02T04:07:27;5.07;;;3.70;;
70132;SDS011;57495;49.922;7.966;2022-08-02T04:09:28;5.80;;;3.95;;
70132;SDS011;57495;49.922;7.966;2022-08-02T04:11:29;6.45;;;3.95;;
70132;SDS011;57495;49.922;7.966;2022-08-02T04:13:32;6.50;;;4.57;;
70132;SDS011;57495;49.922;7.966;2022-08-02T04:15:35;6.25;;;4.63;;
70132;SDS011;57495;49.922;7.966;2022-08-02T04:17:39;8.10;;;4.60;;
70132;SDS011;57495;49.922;7.966;2022-08-02T04:19:44;5.90;;;4.43;;
70132;SDS011;57495;49.922;7.966;2022-08-02T04:21:51;6.10;;;4.57;;
70132;SDS011;57495;49.922;7.966;2022-08-02T04:23:54;5.43;;;4.30;;
70132;SDS011;57495;49.922;7.966;2022-08-02T04:25:57;6.00;;;4.40;;
70132;SDS011;57495;49.922;7.966;2022-08-02T04:28:00;6.50;;;4.47;;
70132;SDS011;57495;49.922;7.966;2022-08-02T04:30:04;6.95;;;4.45;;
70132;SDS011;57495;49.922;7.966;2022-08-02T04:32:07;5.87;;;4.73;;
70132;SDS011;57495;49.922;7.966;2022-08-02T04:34:08;6.20;;;4.30;;
70132;SDS011;57495;49.922;7.966;2022-08-02T04:36:10;6.15;;;4.63;;
70132;SDS011;57495;49.922;7.966;2022-08-02T04:38:14;6.15;;;4.70;;
70132;SDS011;57495;49.922;7.966;2022-08-02T04:40:16;5.75;;;4.45;;
70132;SDS011;57495;49.922;7.966;2022-08-02T04:42:19;8.67;;;4.53;;
70132;SDS011;57495;49.922;7.966;2022-08-02T04:44:21;5.60;;;3.97;;
70132;SDS011;57495;49.922;7.966;2022-08-02T04:46:24;5.40;;;3.95;;
70132;SDS011;57495;49.922;7.966;2022-08-02T04:48:26;8.57;;;4.38;;
70132;SDS011;57495;49.922;7.966;2022-08-02T04:50:29;6.85;;;4.38;;
70132;SDS011;57495;49.922;7.966;2022-08-02T04:52:30;5.87;;;4.30;;
70132;SDS011;57495;49.922;7.966;2022-08-02T04:54:31;6.35;;;4.75;;
70132;SDS011;57495;49.922;7.966;2022-08-02T04:56:33;7.03;;;5.45;;
70132;SDS011;57495;49.922;7.966;2022-08-02T04:58:34;8.27;;;5.40;;
70132;SDS011;57495;49.922;7.966;2022-08-02T05:00:36;6.43;;;4.95;;
70132;SDS011;57495;49.922;7.966;2022-08-02T05:02:38;6.53;;;5.53;;
70132;SDS011;57495;49.922;7.966;2022-08-02T05:04:40;8.02;;;5.75;;
70132;SDS011;57495;49.922;7.966;2022-08-02T05:06:41;7.72;;;5.80;;
70132;SDS011;57495;49.922;7.966;2022-08-02T05:08:42;7.43;;;5.60;;
70132;SDS011;57495;49.922;7.966;2022-08-02T05:10:44;8.18;;;5.20;;
70132;SDS011;57495;49.922;7.966;2022-08-02T05:12:45;9.87;;;5.77;;
70132;SDS011;57495;49.922;7.966;2022-08-02T05:14:47;7.38;;;5.40;;
70132;SDS011;57495;49.922;7.966;2022-08-02T05:16:48;7.47;;;5.05;;
70132;SDS011;57495;49.922;7.966;2022-08-02T05:18:51;6.75;;;4.93;;
70132;SDS011;57495;49.922;7.966;2022-08-02T05:20:52;8.52;;;5.10;;
70132;SDS011;57495;49.922;7.966;2022-08-02T05:22:54;7.47;;;5.37;;
70132;SDS011;57495;49.922;7.966;2022-08-02T05:24:55;9.32;;;5.85;;
70132;SDS011;57495;49.922;7.966;2022-08-02T05:26:57;8.18;;;5.85;;
70132;SDS011;57495;49.922;7.966;2022-08-02T05:28:58;7.18;;;5.28;;
70132;SDS011;57495;49.922;7.966;2022-08-02T05:30:59;8.18;;;5.72;;
70132;SDS011;57495;49.922;7.966;2022-08-02T05:33:01;7.40;;;5.60;;
70132;SDS011;57495;49.922;7.966;2022-08-02T05:35:05;6.60;;;5.25;;
70132;SDS011;57495;49.922;7.966;2022-08-02T05:37:07;8.10;;;5.35;;
70132;SDS011;57495;49.922;7.966;2022-08-02T05:39:09;7.75;;;5.93;;
70132;SDS011;57495;49.922;7.966;2022-08-02T05:41:10;7.55;;;5.28;;
70132;SDS011;57495;49.922;7.966;2022-08-02T05:43:12;9.33;;;5.10;;
70132;SDS011;57495;49.922;7.966;2022-08-02T05:45:14;7.38;;;6.18;;
70132;SDS011;57495;49.922;7.966;2022-08-02T05:47:16;6.97;;;5.82;;
70132;SDS011;57495;49.922;7.966;2022-08-02T05:49:18;7.72;;;5.38;;
70132;SDS011;57495;49.922;7.966;2022-08-02T05:51:21;6.93;;;4.93;;
70132;SDS011;57495;49.922;7.966;2022-08-02T05:53:27;8.33;;;5.10;;
70132;SDS011;57495;49.922;7.966;2022-08-02T05:55:38;6.80;;;4.43;;
70132;SDS011;57495;49.922;7.966;2022-08-02T05:57:47;8.02;;;5.35;;
70132;SDS011;57495;49.922;7.966;2022-08-02T05:59:57;7.03;;;5.25;;
70132;SDS011;57495;49.922;7.966;2022-08-02T06:02:08;7.22;;;5.20;;
70132;SDS011;57495;49.922;7.966;2022-08-02T06:04:19;6.97;;;5.47;;
70132;SDS011;57495;49.922;7.966;2022-08-02T06:06:26;7.07;;;5.10;;
70132;SDS011;57495;49.922;7.966;2022-08-02T06:08:32;7.32;;;5.68;;
70132;SDS011;57495;49.922;7.966;2022-08-02T06:10:39;9.05;;;5.68;;
70132;SDS011;57495;49.922;7.966;2022-08-02T06:12:45;8.05;;;5.40;;
70132;SDS011;57495;49.922;7.966;2022-08-02T06:14:48;7.80;;;5.47;;
70132;SDS011;57495;49.922;7.966;2022-08-02T06:16:50;7.95;;;5.20;;
70132;SDS011;57495;49.922;7.966;2022-08-02T06:18:52;7.35;;;5.72;;
70132;SDS011;57495;49.922;7.966;2022-08-02T06:20:55;8.63;;;6.05;;
70132;SDS011;57495;49.922;7.966;2022-08-02T06:23:02;6.97;;;4.90;;
70132;SDS011;57495;49.922;7.966;2022-08-02T06:25:06;7.50;;;5.57;;
70132;SDS011;57495;49.922;7.966;2022-08-02T06:27:08;8.15;;;5.60;;
70132;SDS011;57495;49.922;7.966;2022-08-02T06:29:11;7.45;;;5.38;;
70132;SDS011;57495;49.922;7.966;2022-08-02T06:31:13;7.13;;;5.47;;
70132;SDS011;57495;49.922;7.966;2022-08-02T06:33:15;7.47;;;5.20;;
70132;SDS011;57495;49.922;7.966;2022-08-02T06:35:16;6.73;;;5.33;;
70132;SDS011;57495;49.922;7.966;2022-08-02T06:37:21;7.55;;;5.95;;
70132;SDS011;57495;49.922;7.966;2022-08-02T06:39:30;6.82;;;5.50;;
70132;SDS011;57495;49.922;7.966;2022-08-02T06:41:36;8.32;;;5.10;;
70132;SDS011;57495;49.922;7.966;2022-08-02T06:43:42;7.82;;;5.25;;
70132;SDS011;57495;49.922;7.966;2022-08-02T06:45:46;8.20;;;5.03;;
70132;SDS011;57495;49.922;7.966;2022-08-02T06:47:48;6.80;;;4.88;;
70132;SDS011;57495;49.922;7.966;2022-08-02T06:49:49;7.38;;;5.35;;
70132;SDS011;57495;49.922;7.966;2022-08-02T06:51:51;8.18;;;4.72;;
70132;SDS011;57495;49.922;7.966;2022-08-02T06:53:52;6.63;;;5.13;;
70132;SDS011;57495;49.922;7.966;2022-08-02T06:55:55;7.33;;;4.80;;
70132;SDS011;57495;49.922;7.966;2022-08-02T06:57:57;8.57;;;5.00;;
70132;SDS011;57495;49.922;7.966;2022-08-02T06:59:59;6.35;;;4.30;;
70132;SDS011;57495;49.922;7.966;2022-08-02T07:02:02;8.15;;;4.53;;
70132;SDS011;57495;49.922;7.966;2022-08-02T07:04:04;7.70;;;4.70;;
70132;SDS011;57495;49.922;7.966;2022-08-02T07:06:05;6.73;;;3.93;;
70132;SDS011;57495;49.922;7.966;2022-08-02T07:08:08;6.63;;;4.78;;
70132;SDS011;57495;49.922;7.966;2022-08-02T07:10:10;7.20;;;4.80;;
70132;SDS011;57495;49.922;7.966;2022-08-02T07:12:13;8.05;;;4.90;;
70132;SDS011;57495;49.922;7.966;2022-08-02T07:14:15;7.75;;;4.80;;
70132;SDS011;57495;49.922;7.966;2022-08-02T07:16:16;6.63;;;3.87;;
70132;SDS011;57495;49.922;7.966;2022-08-02T07:18:18;6.57;;;4.32;;
70132;SDS011;57495;49.922;7.966;2022-08-02T07:20:19;6.57;;;4.15;;
70132;SDS011;57495;49.922;7.966;2022-08-02T07:22:21;7.18;;;5.13;;
70132;SDS011;57495;49.922;7.966;2022-08-02T07:24:23;9.10;;;5.07;;
70132;SDS011;57495;49.922;7.966;2022-08-02T07:26:24;9.67;;;5.70;;
70132;SDS011;57495;49.922;7.966;2022-08-02T07:28:27;5.88;;;4.20;;
70132;SDS011;57495;49.922;7.966;2022-08-02T07:30:28;6.32;;;4.60;;
70132;SDS011;57495;49.922;7.966;2022-08-02T07:32:32;7.68;;;4.72;;
70132;SDS011;57495;49.922;7.966;2022-08-02T07:34:33;6.28;;;3.95;;
70132;SDS011;57495;49.922;7.966;2022-08-02T07:36:34;8.37;;;4.93;;
70132;SDS011;57495;49.922;7.966;2022-08-02T07:38:36;6.55;;;4.00;;
70132;SDS011;57495;49.922;7.966;2022-08-02T07:40:37;7.05;;;4.40;;
70132;SDS011;57495;49.922;7.966;2022-08-02T07:42:39;5.65;;;4.47;;
70132;SDS011;57495;49.922;7.966;2022-08-02T07:44:42;6.15;;;4.18;;
70132;SDS011;57495;49.922;7.966;2022-08-02T07:46:44;6.57;;;4.47;;
70132;SDS011;57495;49.922;7.966;2022-08-02T07:48:46;7.90;;;4.80;;
70132;SDS011;57495;49.922;7.966;2022-08-02T07:50:47;6.25;;;3.80;;
70132;SDS011;57495;49.922;7.966;2022-08-02T07:52:49;6.85;;;4.22;;
70132;SDS011;57495;49.922;7.966;2022-08-02T07:54:50;5.68;;;3.60;;
70132;SDS011;57495;49.922;7.966;2022-08-02T07:56:52;6.23;;;3.20;;
70132;SDS011;57495;49.922;7.966;2022-08-02T07:58:53;6.20;;;3.20;;
70132;SDS011;57495;49.922;7.966;2022-08-02T08:00:56;4.93;;;3.38;;
70132;SDS011;57495;49.922;7.966;2022-08-02T08:02:57;6.63;;;3.67;;
70132;SDS011;57495;49.922;7.966;2022-08-02T08:04:59;5.13;;;2.95;;
70132;SDS011;57495;49.922;7.966;2022-08-02T08:07:01;5.43;;;2.57;;
70132;SDS011;57495;49.922;7.966;2022-08-02T08:09:05;6.55;;;3.72;;
70132;SDS011;57495;49.922;7.966;2022-08-02T08:11:06;4.72;;;2.97;;
70132;SDS011;57495;49.922;7.966;2022-08-02T08:13:07;5.90;;;3.40;;
70132;SDS011;57495;49.922;7.966;2022-08-02T08:15:09;6.80;;;2.65;;
70132;SDS011;57495;49.922;7.966;2022-08-02T08:17:12;3.70;;;2.30;;
70132;SDS011;57495;49.922;7.966;2022-08-02T08:19:13;5.38;;;1.95;;
70132;SDS011;57495;49.922;7.966;2022-08-02T08:21:15;6.53;;;2.20;;
70132;SDS011;57495;49.922;7.966;2022-08-02T08:23:16;4.18;;;2.10;;
70132;SDS011;57495;49.922;7.966;2022-08-02T08:25:17;4.68;;;2.00;;
70132;SDS011;57495;49.922;7.966;2022-08-02T08:27:19;3.83;;;1.77;;
70132;SDS011;57495;49.922;7.966;2022-08-02T08:29:21;3.40;;;1.90;;
70132;SDS011;57495;49.922;7.966;2022-08-02T08:31:23;6.20;;;2.00;;
70132;SDS011;57495;49.922;7.966;2022-08-02T08:33:25;4.88;;;1.90;;
70132;SDS011;57495;49.922;7.966;2022-08-02T08:35:27;5.47;;;2.40;;
70132;SDS011;57495;49.922;7.966;2022-08-02T08:37:32;5.00;;;1.67;;
70132;SDS011;57495;49.922;7.966;2022-08-02T08:39:34;4.78;;;2.30;;
70132;SDS011;57495;49.922;7.966;2022-08-02T08:41:35;6.43;;;2.20;;
70132;SDS011;57495;49.922;7.966;2022-08-02T08:43:37;4.03;;;1.95;;
70132;SDS011;57495;49.922;7.966;2022-08-02T08:45:38;6.32;;;2.10;;
70132;SDS011;57495;49.922;7.966;2022-08-02T08:47:40;7.40;;;2.00;;
70132;SDS011;57495;49.922;7.966;2022-08-02T08:49:44;6.60;;;1.92;;
70132;SDS011;57495;49.922;7.966;2022-08-02T08:51:51;4.60;;;2.47;;
70132;SDS011;57495;49.922;7.966;2022-08-02T08:53:56;4.63;;;2.22;;
70132;SDS011;57495;49.922;7.966;2022-08-02T08:56:02;4.03;;;2.40;;
70132;SDS011;57495;49.922;7.966;2022-08-02T08:58:04;4.90;;;2.17;;
70132;SDS011;57495;49.922;7.966;2022-08-02T09:00:07;4.65;;;2.38;;
70132;SDS011;57495;49.922;7.966;2022-08-02T09:02:10;3.60;;;1.90;;
70132;SDS011;57495;49.922;7.966;2022-08-02T09:04:11;4.05;;;1.80;;
70132;SDS011;57495;49.922;7.966;2022-08-02T09:06:14;3.80;;;2.10;;
70132;SDS011;57495;49.922;7.966;2022-08-02T09:08:15;5.40;;;2.00;;
70132;SDS011;57495;49.922;7.966;2022-08-02T09:10:35;4.73;;;2.40;;
70132;SDS011;57495;49.922;7.966;2022-08-02T09:12:38;5.13;;;1.75;;
70132;SDS011;57495;49.922;7.966;2022-08-02T09:14:39;3.42;;;1.90;;
70132;SDS011;57495;49.922;7.966;2022-08-02T09:16:41;3.15;;;1.85;;
70132;SDS011;57495;49.922;7.966;2022-08-02T09:18:44;4.32;;;2.15;;
70132;SDS011;57495;49.922;7.966;2022-08-02T09:20:52;4.13;;;1.90;;
70132;SDS011;57495;49.922;7.966;2022-08-02T09:23:07;3.92;;;1.90;;
70132;SDS011;57495;49.922;7.966;2022-08-02T09:25:13;4.75;;;1.50;;
70132;SDS011;57495;49.922;7.966;2022-08-02T09:27:16;3.65;;;1.40;;
70132;SDS011;57495;49.922;7.966;2022-08-02T09:29:20;4.20;;;1.20;;
70132;SDS011;57495;49.922;7.966;2022-08-02T09:31:23;3.23;;;1.37;;
70132;SDS011;57495;49.922;7.966;2022-08-02T09:33:25;3.08;;;1.60;;
70132;SDS011;57495;49.922;7.966;2022-08-02T09:35:30;3.05;;;1.48;;
70132;SDS011;57495;49.922;7.966;2022-08-02T09:37:33;3.10;;;1.60;;
70132;SDS011;57495;49.922;7.966;2022-08-02T09:39:38;3.20;;;1.70;;
70132;SDS011;57495;49.922;7.966;2022-08-02T09:41:44;3.30;;;1.90;;
70132;SDS011;57495;49.922;7.966;2022-08-02T09:43:45;3.67;;;1.30;;
70132;SDS011;57495;49.922;7.966;2022-08-02T09:45:47;2.85;;;1.60;;
70132;SDS011;57495;49.922;7.966;2022-08-02T09:47:48;3.00;;;1.25;;
70132;SDS011;57495;49.922;7.966;2022-08-02T09:49:50;2.63;;;1.38;;
70132;SDS011;57495;49.922;7.966;2022-08-02T09:51:53;2.90;;;1.20;;
70132;SDS011;57495;49.922;7.966;2022-08-02T09:53:56;3.13;;;1.70;;
70132;SDS011;57495;49.922;7.966;2022-08-02T09:56:00;3.30;;;1.23;;
70132;SDS011;57495;49.922;7.966;2022-08-02T09:58:15;2.78;;;1.17;;
70132;SDS011;57495;49.922;7.966;2022-08-02T10:00:18;2.92;;;1.40;;
70132;SDS011;57495;49.922;7.966;2022-08-02T10:02:19;5.57;;;2.70;;
70132;SDS011;57495;49.922;7.966;2022-08-02T10:04:22;4.70;;;2.70;;
70132;SDS011;57495;49.922;7.966;2022-08-02T10:06:25;5.20;;;2.67;;
70132;SDS011;57495;49.922;7.966;2022-08-02T10:08:27;6.13;;;2.87;;
70132;SDS011;57495;49.922;7.966;2022-08-02T10:10:29;5.13;;;2.28;;
70132;SDS011;57495;49.922;7.966;2022-08-02T10:12:32;4.60;;;2.35;;
70132;SDS011;57495;49.922;7.966;2022-08-02T10:14:33;5.38;;;2.00;;
70132;SDS011;57495;49.922;7.966;2022-08-02T10:16:36;4.57;;;1.88;;
70132;SDS011;57495;49.922;7.966;2022-08-02T10:18:38;4.13;;;1.40;;
70132;SDS011;57495;49.922;7.966;2022-08-02T10:20:42;4.18;;;2.03;;
70132;SDS011;57495;49.922;7.966;2022-08-02T10:22:44;2.90;;;1.43;;
70132;SDS011;57495;49.922;7.966;2022-08-02T10:24:47;4.50;;;1.60;;
70132;SDS011;57495;49.922;7.966;2022-08-02T10:26:49;3.83;;;1.60;;
70132;SDS011;57495;49.922;7.966;2022-08-02T10:28:53;4.18;;;1.67;;
70132;SDS011;57495;49.922;7.966;2022-08-02T10:30:54;3.55;;;1.50;;
70132;SDS011;57495;49.922;7.966;2022-08-02T10:32:57;3.70;;;1.70;;
70132;SDS011;57495;49.922;7.966;2022-08-02T10:35:03;3.10;;;1.17;;
70132;SDS011;57495;49.922;7.966;2022-08-02T10:37:06;3.23;;;1.50;;
70132;SDS011;57495;49.922;7.966;2022-08-02T10:39:09;3.10;;;1.33;;
70132;SDS011;57495;49.922;7.966;2022-08-02T10:41:11;4.35;;;1.55;;
70132;SDS011;57495;49.922;7.966;2022-08-02T10:43:14;4.22;;;1.67;;
70132;SDS011;57495;49.922;7.966;2022-08-02T10:45:44;4.32;;;1.83;;
70132;SDS011;57495;49.922;7.966;2022-08-02T10:47:57;3.20;;;1.98;;
70132;SDS011;57495;49.922;7.966;2022-08-02T10:50:00;3.30;;;1.60;;
70132;SDS011;57495;49.922;7.966;2022-08-02T10:54:16;3.33;;;1.55;;
70132;SDS011;57495;49.922;7.966;2022-08-02T10:56:20;4.55;;;1.80;;
70132;SDS011;57495;49.922;7.966;2022-08-02T10:58:49;3.40;;;1.60;;
70132;SDS011;57495;49.922;7.966;2022-08-02T11:01:29;3.08;;;1.48;;
70132;SDS011;57495;49.922;7.966;2022-08-02T11:03:34;4.03;;;1.52;;
70132;SDS011;57495;49.922;7.966;2022-08-02T11:05:39;4.13;;;1.33;;
70132;SDS011;57495;49.922;7.966;2022-08-02T11:07:42;4.87;;;1.50;;
70132;SDS011;57495;49.922;7.966;2022-08-02T11:09:45;3.22;;;1.50;;
70132;SDS011;57495;49.922;7.966;2022-08-02T11:11:58;3.40;;;1.50;;
70132;SDS011;57495;49.922;7.966;2022-08-02T11:14:01;3.45;;;1.90;;
70132;SDS011;57495;49.922;7.966;2022-08-02T11:16:05;3.03;;;1.50;;
70132;SDS011;57495;49.922;7.966;2022-08-02T11:18:08;3.60;;;1.60;;
70132;SDS011;57495;49.922;7.966;2022-08-02T11:20:13;3.22;;;1.30;;
70132;SDS011;57495;49.922;7.966;2022-08-02T11:22:16;3.63;;;1.70;;
70132;SDS011;57495;49.922;7.966;2022-08-02T11:24:25;3.43;;;1.53;;
70132;SDS011;57495;49.922;7.966;2022-08-02T11:26:40;3.50;;;1.65;;
70132;SDS011;57495;49.922;7.966;2022-08-02T11:28:47;3.40;;;1.50;;
70132;SDS011;57495;49.922;7.966;2022-08-02T11:30:54;3.95;;;1.58;;
70132;SDS011;57495;49.922;7.966;2022-08-02T11:32:57;2.95;;;1.40;;
70132;SDS011;57495;49.922;7.966;2022-08-02T11:35:00;3.47;;;1.70;;
70132;SDS011;57495;49.922;7.966;2022-08-02T11:37:03;3.13;;;1.60;;
70132;SDS011;57495;49.922;7.966;2022-08-02T11:39:08;3.42;;;1.70;;
70132;SDS011;57495;49.922;7.966;2022-08-02T11:41:17;3.03;;;1.42;;
70132;SDS011;57495;49.922;7.966;2022-08-02T11:43:19;3.30;;;1.63;;
70132;SDS011;57495;49.922;7.966;2022-08-02T11:45:23;3.20;;;1.70;;
70132;SDS011;57495;49.922;7.966;2022-08-02T11:47:26;4.38;;;1.25;;
70132;SDS011;57495;49.922;7.966;2022-08-02T11:49:27;5.65;;;1.92;;
70132;SDS011;57495;49.922;7.966;2022-08-02T11:51:31;3.15;;;1.70;;
70132;SDS011;57495;49.922;7.966;2022-08-02T11:53:33;4.13;;;1.40;;
70132;SDS011;57495;49.922;7.966;2022-08-02T11:55:42;3.38;;;1.50;;
70132;SDS011;57495;49.922;7.966;2022-08-02T11:57:43;4.13;;;1.30;;
70132;SDS011;57495;49.922;7.966;2022-08-02T11:59:48;3.78;;;1.60;;
70132;SDS011;57495;49.922;7.966;2022-08-02T12:01:51;4.13;;;1.40;;
70132;SDS011;57495;49.922;7.966;2022-08-02T12:03:52;3.90;;;1.33;;
70132;SDS011;57495;49.922;7.966;2022-08-02T12:05:57;5.22;;;1.63;;
70132;SDS011;57495;49.922;7.966;2022-08-02T12:08:01;2.75;;;1.48;;
70132;SDS011;57495;49.922;7.966;2022-08-02T12:10:07;3.28;;;1.40;;
70132;SDS011;57495;49.922;7.966;2022-08-02T12:12:10;4.55;;;1.67;;
70132;SDS011;57495;49.922;7.966;2022-08-02T12:14:11;3.90;;;1.55;;
70132;SDS011;57495;49.922;7.966;2022-08-02T12:16:13;3.53;;;1.30;;
70132;SDS011;57495;49.922;7.966;2022-08-02T12:18:47;2.97;;;1.60;;
70132;SDS011;57495;49.922;7.966;2022-08-02T12:21:19;3.00;;;1.65;;
70132;SDS011;57495;49.922;7.966;2022-08-02T12:23:24;4.30;;;1.50;;
70132;SDS011;57495;49.922;7.966;2022-08-02T12:25:25;3.23;;;1.70;;
70132;SDS011;57495;49.922;7.966;2022-08-02T12:27:31;2.70;;;1.33;;
70132;SDS011;57495;49.922;7.966;2022-08-02T12:29:35;2.90;;;1.20;;